Moose, WY

2:12 AM MDT on August 31, 2014 (GMT -0600)
Jackson Hole | Change Station
CLOSE
Current Station
Airport
Location: Jackson,
Elevation: 6450 ft
Nearby Weather Stations

Elev 6450 ft 43.61 °N, 110.74 °W | Updated 17 minutes ago

Scattered Clouds
Scattered Clouds
45 °F
Feels Like 41 °F
N
7
Wind Variable Wind from North

Today
High -- | Low -- °F
--% Chance of Precip.
Yesterday
High -- | Low -- °F
Precip. -- in
6:45 AM 8:00 PM
Waxing Crescent, 29% visible
Pressure 29.99 in
Visibility 10.0 miles
Clouds Scattered Clouds 8500 ft
Windchill 41 °F
Dew Point 43 °F
Humidity 93%
Rainfall 0.03 in
Snow Depth Not available.
UV 0 out of 12
Pollen 8.90 out of 12
Air Quality Not available.
Flu Activity Not available.
METAR KJAC 310755Z 36006KT 10SM SCT085 07/06 A2999 RMK AO1 P0001

More Conditions Fewer Conditions

Pressure 29.99 in
Visibility 10.0 miles
Clouds Scattered Clouds 8500 ft
Windchill 41 °F
Dew Point 43 °F
Humidity 93%
Rainfall 0.03 in
Snow Depth Not available.
UV 0 out of 12
Pollen 8.90 out of 12
Air Quality Not available.
Flu Activity Not available.
METAR KJAC 310755Z 36006KT 10SM SCT085 07/06 A2999 RMK AO1 P0001

More Conditions Fewer Conditions

10-Day Weather Forecast

Almanac

Astronomy

Aug. 31, 2014 Rise Set
Actual Time 6:45 AM MDT 8:00 PM MDT
Civil Twilight 6:15 AM MDT 8:30 PM MDT
Nautical Twilight 5:40 AM MDT 9:05 PM MDT
Astronomical Twilight 5:02 AM MDT 9:43 PM MDT
Moon 12:48 PM MDT 11:05 PM MDT
Length of Visible Light 14h 14m
Length of Day
13h 14m
Tomorrow will be 2m 53s shorter.
Waxing Crescent, 29% of the Moon is Illuminated
Today
Waxing Crescent
Sep 2
First Quarter
Sep 8
Full
Sep 15
Last Quarter
Sep 24
New

Today's Extremes

State Highs State Lows

Community

WunderPhotos

Upload Photos

1,748,820 photos uploaded!

Nearby

Snow Depth

Station Depth Elevation
Base Camp 0 in 7030 ft
Snake River Station 0 in 6920 ft
Lewis Lake Divide 1 in 7850 ft
Togwotee Pass 0 in 7980 ft
Granite Creek 0 in 6770 ft

Earthquake Activity

City Distance Mag. Time & Date
Driggs, Idaho 6 miles 3.8 2:09 PM MDT
2014-08-30
Minimum magnitude displayed is 2.5.

Coastal Water Temperatures

Place Temperature
No Stations Reporting

Nearby Weather Stations